New Orleans, Louisiana
Traffic Map
Current Weather Conditions
New Orleans, Louisiana
Overcast
Overcast
22°
Feels Like: 22°
Wind Chill: 22° Ceiling: 1100
Heat Index: 22° Visibility: 7mi
Dew Point: 21° Wind: 10mph
Humidity: 93% Direction: 160° (SSE)
Pressure: 30.1in Gusts: 0mph
Raw Report DataKNEW 280953Z AUTO 16009KT 7SM BKN011 OVC020 22/21 A3010 RMK AO2 SLP187 T02220211
Traffic Incident Summary
Active as of:
Severity:
Category:
InformationThere was an issue retrieving the traffic information for this location. Please try a different location or try again shortly.
Advertisements
Track Severe Weather on mobile